C6024 KSFO-KSFO
Flight info
| Callsign | C6024 |
|---|---|
| Flight time | 0h 14m |
| Altitude | VFR |
| Route | |
| Aircraft | H60/M-DOV/C |
Departure
| Time | 2026-05-06 05:03 |
|---|---|
| Airport | San Francisco International Airport (KSFO) |
Arrival
| Time | 2026-05-06 05:18 |
|---|---|
| Airport | San Francisco International Airport (KSFO) |
| Time | Latitude | Longitude | Altitude | Speed | Heading |
|---|---|---|---|---|---|
| 2026-05-06 05:00 | 37.63291 | -122.38917 | 12 ft | 0 kts | 359° |
| 2026-05-06 05:01 | 37.63293 | -122.38914 | 12 ft | 3 kts | 359° |
| 2026-05-06 05:01 | 37.63329 | -122.38924 | 22 ft | 4 kts | 266° |
| 2026-05-06 05:02 | 37.63308 | -122.38944 | 38 ft | 11 kts | 193° |
| 2026-05-06 05:02 | 37.63235 | -122.38911 | 99 ft | 12 kts | 182° |
| 2026-05-06 05:02 | 37.63144 | -122.38817 | 185 ft | 24 kts | 93° |
| 2026-05-06 05:02 | 37.63273 | -122.38470 | 241 ft | 71 kts | 46° |
| 2026-05-06 05:03 | 37.63804 | -122.38058 | 313 ft | 109 kts | 17° |
| 2026-05-06 05:03 | 37.64630 | -122.37589 | 483 ft | 144 kts | 17° |
| 2026-05-06 05:03 | 37.65624 | -122.37257 | 672 ft | 152 kts | 2° |
| 2026-05-06 05:03 | 37.66705 | -122.37198 | 827 ft | 156 kts | 354° |
| 2026-05-06 05:04 | 37.67793 | -122.37193 | 954 ft | 158 kts | 353° |
| 2026-05-06 05:04 | 37.68904 | -122.37198 | 1031 ft | 163 kts | 353° |
| 2026-05-06 05:04 | 37.70071 | -122.37148 | 947 ft | 171 kts | 3° |
| 2026-05-06 05:04 | 37.71223 | -122.36749 | 991 ft | 170 kts | 9° |
| 2026-05-06 05:05 | 37.72343 | -122.36436 | 1174 ft | 161 kts | 359° |
| 2026-05-06 05:05 | 37.73462 | -122.36462 | 1252 ft | 162 kts | 351° |
| 2026-05-06 05:05 | 37.74581 | -122.36601 | 1355 ft | 159 kts | 342° |
| 2026-05-06 05:05 | 37.75663 | -122.36916 | 1448 ft | 160 kts | 340° |
| 2026-05-06 05:06 | 37.76757 | -122.37273 | 1475 ft | 163 kts | 335° |
| 2026-05-06 05:06 | 37.77858 | -122.37696 | 1478 ft | 165 kts | 333° |
| 2026-05-06 05:06 | 37.78941 | -122.38174 | 1488 ft | 165 kts | 329° |
| 2026-05-06 05:06 | 37.79908 | -122.38953 | 1484 ft | 165 kts | 318° |
| 2026-05-06 05:07 | 37.80814 | -122.39696 | 1475 ft | 165 kts | 318° |
| 2026-05-06 05:07 | 37.81433 | -122.40849 | 1552 ft | 159 kts | 279° |
| 2026-05-06 05:07 | 37.81558 | -122.42248 | 1524 ft | 162 kts | 262° |
| 2026-05-06 05:07 | 37.81457 | -122.43665 | 1513 ft | 162 kts | 252° |
| 2026-05-06 05:08 | 37.81247 | -122.45064 | 1479 ft | 163 kts | 253° |
| 2026-05-06 05:08 | 37.81020 | -122.46472 | 1478 ft | 163 kts | 253° |
| 2026-05-06 05:08 | 37.80791 | -122.47881 | 1480 ft | 164 kts | 253° |
| 2026-05-06 05:08 | 37.80408 | -122.49222 | 1546 ft | 164 kts | 230° |
| 2026-05-06 05:09 | 37.79622 | -122.50306 | 1490 ft | 168 kts | 223° |
| 2026-05-06 05:09 | 37.78873 | -122.51338 | 1474 ft | 167 kts | 223° |
| 2026-05-06 05:09 | 37.77943 | -122.52192 | 1579 ft | 167 kts | 192° |
| 2026-05-06 05:09 | 37.76836 | -122.52114 | 1546 ft | 177 kts | 162° |
| 2026-05-06 05:10 | 37.75613 | -122.51823 | 1478 ft | 179 kts | 163° |
| 2026-05-06 05:10 | 37.74391 | -122.51533 | 1472 ft | 178 kts | 163° |
| 2026-05-06 05:10 | 37.73206 | -122.51260 | 1472 ft | 177 kts | 163° |
| 2026-05-06 05:10 | 37.72072 | -122.51003 | 1475 ft | 177 kts | 163° |
| 2026-05-06 05:11 | 37.70847 | -122.50723 | 1475 ft | 177 kts | 163° |
| 2026-05-06 05:11 | 37.70151 | -122.50563 | 1465 ft | 178 kts | 163° |
| 2026-05-06 05:11 | 37.68931 | -122.50278 | 1472 ft | 179 kts | 163° |
| 2026-05-06 05:11 | 37.67697 | -122.50120 | 1432 ft | 179 kts | 172° |
| 2026-05-06 05:12 | 37.66445 | -122.50107 | 969 ft | 190 kts | 169° |
| 2026-05-06 05:12 | 37.65155 | -122.50121 | 474 ft | 176 kts | 172° |
| 2026-05-06 05:12 | 37.64022 | -122.50166 | 470 ft | 151 kts | 170° |
| 2026-05-06 05:12 | 37.63031 | -122.50183 | 482 ft | 138 kts | 173° |
| 2026-05-06 05:13 | 37.62110 | -122.50180 | 493 ft | 136 kts | 173° |
| 2026-05-06 05:13 | 37.61155 | -122.50238 | 418 ft | 139 kts | 187° |
| 2026-05-06 05:13 | 37.60336 | -122.50823 | 417 ft | 133 kts | 215° |
| 2026-05-06 05:13 | 37.59804 | -122.51743 | 441 ft | 128 kts | 233° |
| 2026-05-06 05:14 | 37.59221 | -122.52516 | 566 ft | 124 kts | 198° |
| 2026-05-06 05:14 | 37.58347 | -122.52600 | 531 ft | 134 kts | 170° |
| 2026-05-06 05:14 | 37.57416 | -122.52574 | 525 ft | 133 kts | 162° |
| 2026-05-06 05:14 | 37.56509 | -122.52282 | 495 ft | 137 kts | 158° |
| 2026-05-06 05:15 | 37.55606 | -122.51987 | 487 ft | 137 kts | 158° |
| 2026-05-06 05:15 | 37.54720 | -122.51703 | 477 ft | 138 kts | 161° |
| 2026-05-06 05:15 | 37.53780 | -122.51885 | 459 ft | 132 kts | 189° |
| 2026-05-06 05:15 | 37.52940 | -122.52093 | 398 ft | 104 kts | 178° |
| 2026-05-06 05:16 | 37.52362 | -122.51955 | 532 ft | 77 kts | 152° |
| 2026-05-06 05:16 | 37.52157 | -122.51446 | 959 ft | 67 kts | 81° |
| 2026-05-06 05:16 | 37.52262 | -122.50842 | 1183 ft | 84 kts | 91° |
| 2026-05-06 05:16 | 37.51924 | -122.50246 | 840 ft | 86 kts | 130° |
| 2026-05-06 05:17 | 37.51536 | -122.49734 | 502 ft | 82 kts | 127° |
| 2026-05-06 05:17 | 37.51209 | -122.49255 | 349 ft | 80 kts | 131° |
| 2026-05-06 05:17 | 37.50763 | -122.49023 | 307 ft | 60 kts | 198° |
| 2026-05-06 05:17 | 37.50695 | -122.49385 | 131 ft | 52 kts | 315° |
| 2026-05-06 05:18 | 37.50934 | -122.49612 | 61 ft | 31 kts | 307° |
| 2026-05-06 05:18 | 37.51042 | -122.49761 | 46 ft | 14 kts | 311° |
| 2026-05-06 05:18 | 37.51066 | -122.49786 | 55 ft | 11 kts | 300° |
| 2026-05-06 05:18 | 37.51153 | -122.49949 | 449 ft | 39 kts | 310° |
| 2026-05-06 05:19 | 37.51402 | -122.50341 | 867 ft | 83 kts | 316° |
| 2026-05-06 05:19 | 37.52005 | -122.50880 | 975 ft | 129 kts | 327° |
| 2026-05-06 05:19 | 37.52932 | -122.51433 | 843 ft | 158 kts | 336° |
| 2026-05-06 05:19 | 37.54026 | -122.51877 | 609 ft | 172 kts | 342° |
| 2026-05-06 05:20 | 37.55222 | -122.52172 | 469 ft | 181 kts | 351° |
| 2026-05-06 05:20 | 37.56456 | -122.52258 | 495 ft | 176 kts | 357° |
| 2026-05-06 05:20 | 37.57684 | -122.52198 | 398 ft | 176 kts | 359° |
| 2026-05-06 05:20 | 37.58859 | -122.52116 | 511 ft | 162 kts | 359° |
| 2026-05-06 05:21 | 37.59943 | -122.51903 | 512 ft | 157 kts | 20° |
| 2026-05-06 05:21 | 37.60745 | -122.51028 | 640 ft | 146 kts | 38° |
| 2026-05-06 05:21 | 37.61492 | -122.50211 | 690 ft | 139 kts | 21° |
| 2026-05-06 05:21 | 37.62382 | -122.49786 | 622 ft | 135 kts | 6° |
| 2026-05-06 05:22 | 37.63308 | -122.49584 | 560 ft | 134 kts | 0° |
| 2026-05-06 05:22 | 37.64232 | -122.49448 | 569 ft | 129 kts | 0° |
| 2026-05-06 05:22 | 37.65113 | -122.49370 | 626 ft | 124 kts | 355° |
| 2026-05-06 05:22 | 37.65961 | -122.49383 | 691 ft | 121 kts | 349° |
| 2026-05-06 05:23 | 37.66812 | -122.49493 | 543 ft | 124 kts | 348° |
| 2026-05-06 05:23 | 37.67677 | -122.49281 | 893 ft | 133 kts | 22° |
| 2026-05-06 05:23 | 37.68264 | -122.46986 | 908 ft | 170 kts | 110° |
| 2026-05-06 05:24 | 37.67514 | -122.45828 | 891 ft | 170 kts | 133° |
| 2026-05-06 05:24 | 37.66677 | -122.44737 | 880 ft | 171 kts | 132° |
| 2026-05-06 05:24 | 37.65835 | -122.43674 | 886 ft | 171 kts | 131° |
| 2026-05-06 05:24 | 37.65151 | -122.42424 | 767 ft | 173 kts | 120° |
| 2026-05-06 05:25 | 37.64557 | -122.41118 | 574 ft | 173 kts | 114° |
| 2026-05-06 05:25 | 37.63890 | -122.39957 | 407 ft | 143 kts | 124° |
| 2026-05-06 05:25 | 37.63356 | -122.39072 | 117 ft | 104 kts | 114° |
| 2026-05-06 05:25 | 37.63117 | -122.38511 | 41 ft | 41 kts | 228° |
| 2026-05-06 05:26 | 37.63019 | -122.38296 | 139 ft | 39 kts | 348° |
| 2026-05-06 05:26 | 37.62909 | -122.38152 | 103 ft | 10 kts | 303° |
| 2026-05-06 05:26 | 37.62992 | -122.38338 | 99 ft | 46 kts | 295° |
| 2026-05-06 05:26 | 37.63124 | -122.38653 | 116 ft | 31 kts | 305° |
| 2026-05-06 05:27 | 37.63155 | -122.38877 | 63 ft | 11 kts | 332° |
| 2026-05-06 05:27 | 37.63201 | -122.38902 | 94 ft | 15 kts | 318° |
| 2026-05-06 05:27 | 37.63243 | -122.38909 | 11 ft | 0 kts | 334° |
| 2026-05-06 05:27 | 37.63243 | -122.38908 | 12 ft | 0 kts | 333° |
| 2026-05-06 05:28 | 37.63253 | -122.38915 | 12 ft | 3 kts | 340° |
| 2026-05-06 05:28 | 37.63279 | -122.38916 | 12 ft | 3 kts | 360° |
| 2026-05-06 05:28 | 37.63285 | -122.38916 | 12 ft | 0 kts | 357° |
| 2026-05-06 05:28 | 37.63285 | -122.38917 | 11 ft | 0 kts | 357° |